createdAt,value
2022-10-05T00:03:20.960Z,37.75
2022-10-05T00:07:24.431Z,39.00
2022-10-05T00:11:26.548Z,33.10
2022-10-05T00:15:29.331Z,31.77
2022-10-05T00:19:34.524Z,27.88
2022-10-05T00:23:36.299Z,30.65
2022-10-05T00:27:38.928Z,30.30
2022-10-05T00:31:40.625Z,29.17
2022-10-05T00:35:42.670Z,31.65
2022-10-05T00:39:44.406Z,26.15
2022-10-05T00:44:03.877Z,20.10
2022-10-05T00:48:41.554Z,26.88
2022-10-05T00:53:18.812Z,25.15
2022-10-05T00:58:06.851Z,28.48
2022-10-05T01:02:35.881Z,31.65
2022-10-05T01:07:00.199Z,24.50
2022-10-05T01:11:37.636Z,25.25
2022-10-05T01:15:47.545Z,25.63
2022-10-05T01:20:14.527Z,34.13
2022-10-05T01:24:43.892Z,27.25
2022-10-05T01:29:05.195Z,27.25
2022-10-05T01:33:21.432Z,26.50
2022-10-05T01:37:58.745Z,25.58
2022-10-05T01:42:19.764Z,29.70
2022-10-05T01:46:31.258Z,19.73
2022-10-05T01:50:52.362Z,26.25
2022-10-05T01:55:06.099Z,30.60
2022-10-05T01:59:18.849Z,28.60
2022-10-05T02:03:27.109Z,23.75
2022-10-05T02:08:14.091Z,24.58
2022-10-05T02:12:21.499Z,28.13
2022-10-05T02:16:31.929Z,21.75
2022-10-05T02:20:37.582Z,29.05
2022-10-05T02:24:48.197Z,21.83
2022-10-05T02:28:58.637Z,26.38
2022-10-05T02:33:06.807Z,35.83
2022-10-05T02:37:46.406Z,26.38
2022-10-05T02:42:03.169Z,29.20
2022-10-05T02:46:26.742Z,25.60
2022-10-05T02:50:47.485Z,24.33
2022-10-05T02:55:19.317Z,25.30
2022-10-05T02:59:38.477Z,26.70
2022-10-05T03:03:47.422Z,26.58
2022-10-05T03:07:57.992Z,26.75
2022-10-05T03:12:30.500Z,23.38
2022-10-05T03:16:51.904Z,24.35
2022-10-05T03:21:23.322Z,26.20
2022-10-05T03:25:40.846Z,26.27
2022-10-05T03:30:03.348Z,18.40
2022-10-05T03:34:41.872Z,21.50
2022-10-05T03:38:54.481Z,23.67
2022-10-05T03:43:19.190Z,25.05
2022-10-05T03:47:35.947Z,26.67
2022-10-05T03:51:43.353Z,23.13
2022-10-05T03:55:51.878Z,28.08
2022-10-05T04:00:02.732Z,30.38
2022-10-05T04:04:39.759Z,24.75
2022-10-05T04:08:56.227Z,34.97
2022-10-05T04:13:40.235Z,29.60
2022-10-05T04:18:00.709Z,25.13
2022-10-05T04:22:22.527Z,30.90
2022-10-05T04:26:37.243Z,24.38
2022-10-05T04:31:07.284Z,30.92
2022-10-05T04:35:53.709Z,32.15
2022-10-05T04:40:14.613Z,30.45
2022-10-05T04:44:35.528Z,34.17
2022-10-05T04:48:44.939Z,30.23
2022-10-05T04:53:05.093Z,30.08
2022-10-05T04:57:13.583Z,29.38
2022-10-05T05:06:17.992Z,29.23
2022-10-05T05:10:48.971Z,33.28
2022-10-05T05:15:01.787Z,34.20
2022-10-05T05:19:28.685Z,31.05
2022-10-05T05:23:44.368Z,36.65
2022-10-05T05:28:23.393Z,33.58
2022-10-05T05:32:52.848Z,41.22
2022-10-05T05:37:01.157Z,38.13
2022-10-05T05:41:40.168Z,41.97
2022-10-05T05:45:58.238Z,39.83
2022-10-05T05:50:07.805Z,43.55
2022-10-05T05:54:15.557Z,34.63
2022-10-05T05:58:38.476Z,41.13
2022-10-05T06:03:00.849Z,46.45
2022-10-05T06:07:05.877Z,34.65
2022-10-05T06:11:18.992Z,29.80
2022-10-05T06:15:39.281Z,31.75
2022-10-05T06:19:44.099Z,31.38
2022-10-05T06:23:54.151Z,39.42
2022-10-05T06:28:03.751Z,38.35
2022-10-05T06:32:20.223Z,34.03
2022-10-05T06:36:40.391Z,38.35
2022-10-05T06:41:20.321Z,35.58
2022-10-05T06:45:45.927Z,27.67
2022-10-05T06:50:21.479Z,25.20
2022-10-05T06:54:45.961Z,26.73
2022-10-05T06:59:17.151Z,28.13
2022-10-05T07:12:11.538Z,29.48
2022-10-05T07:16:45.520Z,21.35
2022-10-05T07:20:57.865Z,21.48
2022-10-05T07:25:26.629Z,25.40
2022-10-05T07:29:51.555Z,18.03
2022-10-05T07:34:04.856Z,22.25
2022-10-05T07:38:15.435Z,19.42
2022-10-05T07:42:29.375Z,18.50
2022-10-05T07:46:47.766Z,18.10
2022-10-05T07:51:15.856Z,15.93
2022-10-05T07:55:20.769Z,21.75
2022-10-05T07:59:34.385Z,18.92
2022-10-05T08:03:55.740Z,17.63
2022-10-05T08:08:19.799Z,20.42
2022-10-05T08:12:31.710Z,16.02
2022-10-05T08:16:38.079Z,13.52
2022-10-05T08:20:45.852Z,18.40
2022-10-05T08:25:09.912Z,15.77
2022-10-05T08:29:45.210Z,16.58
2022-10-05T08:34:22.069Z,15.57
2022-10-05T08:38:31.639Z,14.43
2022-10-05T08:42:36.610Z,13.77
2022-10-05T08:47:18.627Z,18.80
2022-10-05T08:51:48.625Z,15.68
2022-10-05T08:56:28.500Z,18.50
2022-10-05T09:05:16.459Z,18.42
2022-10-05T09:09:45.200Z,19.25
2022-10-05T09:13:58.844Z,14.10
2022-10-05T09:18:37.907Z,18.70
2022-10-05T09:22:58.154Z,14.48
2022-10-05T09:27:23.886Z,15.35
2022-10-05T09:31:56.992Z,10.73
2022-10-05T09:36:12.418Z,13.75
2022-10-05T09:40:47.451Z,10.93
2022-10-05T09:45:20.460Z,10.52
2022-10-05T09:49:46.515Z,11.70
2022-10-05T09:54:19.986Z,9.38
2022-10-05T09:59:07.564Z,16.67
2022-10-05T10:03:44.570Z,14.63
2022-10-05T10:08:15.125Z,11.27
2022-10-05T10:12:33.271Z,18.92
2022-10-05T10:17:19.700Z,20.98
2022-10-05T10:21:42.184Z,15.45
2022-10-05T10:26:06.469Z,13.40
2022-10-05T10:30:32.034Z,15.13
2022-10-05T10:34:37.844Z,14.85
2022-10-05T10:39:06.298Z,11.10
2022-10-05T10:43:26.568Z,15.27
2022-10-05T10:47:50.585Z,21.35
2022-10-05T10:52:17.207Z,18.15
2022-10-05T11:01:32.323Z,14.35
2022-10-05T11:05:58.162Z,11.63
2022-10-05T11:10:26.096Z,11.80
2022-10-05T11:14:46.093Z,11.55
2022-10-05T11:19:05.776Z,14.05
2022-10-05T11:23:49.690Z,14.20
2022-10-05T11:28:04.021Z,12.40
2022-10-05T11:32:24.289Z,13.93
2022-10-05T11:36:58.301Z,12.85
2022-10-05T11:41:47.083Z,10.32
2022-10-05T11:46:27.793Z,13.73
2022-10-05T11:50:40.072Z,8.98
2022-10-05T11:55:17.183Z,12.55
2022-10-05T11:59:34.491Z,10.70
2022-10-05T12:03:53.677Z,7.22
2022-10-05T12:08:14.169Z,9.43
2022-10-05T12:12:27.080Z,10.07
2022-10-05T12:16:50.636Z,11.15
2022-10-05T12:20:59.168Z,10.20
2022-10-05T12:29:11.599Z,13.40
2022-10-05T12:33:29.196Z,7.50
2022-10-05T12:37:53.218Z,15.07
2022-10-05T12:42:18.388Z,9.55
2022-10-05T12:47:11.575Z,7.28
2022-10-05T12:51:45.144Z,10.00
2022-10-05T12:55:58.403Z,12.32
2022-10-05T13:00:09.864Z,14.93
2022-10-05T13:04:49.210Z,11.20
2022-10-05T13:09:00.279Z,9.55
2022-10-05T13:13:26.055Z,16.95
2022-10-05T13:17:50.029Z,12.40
2022-10-05T13:22:09.544Z,10.60
2022-10-05T13:26:19.517Z,11.50
2022-10-05T13:30:21.862Z,11.55
2022-10-05T13:34:54.467Z,9.73
2022-10-05T13:39:09.899Z,15.15
2022-10-05T13:43:29.801Z,14.23
2022-10-05T13:47:39.005Z,14.52
2022-10-05T13:52:04.111Z,15.18
2022-10-05T13:56:16.318Z,11.75
2022-10-05T14:00:26.532Z,18.45
2022-10-05T14:04:42.222Z,15.45
2022-10-05T14:08:52.033Z,12.48
2022-10-05T14:12:54.759Z,12.98
2022-10-05T14:16:59.454Z,11.35
2022-10-05T14:21:08.498Z,12.63
2022-10-05T14:25:10.447Z,12.40
2022-10-05T14:29:14.960Z,13.90
2022-10-05T14:33:17.117Z,13.65
2022-10-05T14:37:25.263Z,8.88
2022-10-05T14:41:29.064Z,11.37
2022-10-05T14:45:32.653Z,10.60
2022-10-05T14:49:37.065Z,12.45
2022-10-05T14:53:45.563Z,8.95
2022-10-05T14:58:30.724Z,12.38
2022-10-05T15:02:45.012Z,10.52
2022-10-05T15:06:58.534Z,11.27
2022-10-05T15:11:23.869Z,15.55
2022-10-05T15:15:42.524Z,14.02
2022-10-05T15:20:09.587Z,9.83
2022-10-05T15:24:17.691Z,12.70
2022-10-05T15:28:28.466Z,11.43
2022-10-05T15:33:07.520Z,15.63
2022-10-05T15:37:21.167Z,9.13
2022-10-05T15:41:45.743Z,13.48
2022-10-05T15:46:13.956Z,13.77
2022-10-05T15:50:29.820Z,20.10
2022-10-05T15:55:05.992Z,13.75
2022-10-05T15:59:25.888Z,14.82
2022-10-05T16:04:01.165Z,17.60
2022-10-05T16:08:22.021Z,10.23
2022-10-05T16:12:42.720Z,23.58
2022-10-05T16:16:59.621Z,16.00
2022-10-05T16:21:11.956Z,14.45
2022-10-05T16:25:44.009Z,14.38
2022-10-05T16:29:59.992Z,14.93
2022-10-05T16:34:24.744Z,14.98
2022-10-05T16:38:52.782Z,17.05
2022-10-05T16:43:15.323Z,19.00
2022-10-05T16:47:34.632Z,13.02
2022-10-05T16:51:59.113Z,11.07
2022-10-05T16:56:05.208Z,13.30
2022-10-05T17:00:19.384Z,10.50
2022-10-05T17:04:42.800Z,12.68
2022-10-05T17:09:14.422Z,17.42
2022-10-05T17:13:28.969Z,13.45
2022-10-05T17:18:02.071Z,23.33
2022-10-05T17:22:39.593Z,24.80
2022-10-05T17:27:17.841Z,17.80
2022-10-05T17:31:23.066Z,16.35
2022-10-05T17:35:56.864Z,17.08
2022-10-05T17:39:59.050Z,14.02
2022-10-05T17:44:06.770Z,19.13
2022-10-05T17:48:13.087Z,17.63
2022-10-05T17:52:43.855Z,17.27
2022-10-05T17:56:48.578Z,18.90
2022-10-05T18:01:00.642Z,18.80
2022-10-05T18:05:16.114Z,16.08
2022-10-05T18:09:30.768Z,18.00
2022-10-05T18:13:41.565Z,14.90
2022-10-05T18:17:51.507Z,19.42
2022-10-05T18:22:03.438Z,19.52
2022-10-05T18:26:07.999Z,17.98
2022-10-05T18:30:27.282Z,15.30
2022-10-05T18:34:50.778Z,17.42
2022-10-05T18:39:26.934Z,20.17
2022-10-05T18:43:47.501Z,23.48
2022-10-05T18:48:07.762Z,19.52
2022-10-05T18:52:29.390Z,16.27
2022-10-05T18:56:39.909Z,16.70
2022-10-05T19:01:00.363Z,16.52
2022-10-05T19:05:42.598Z,14.02
2022-10-05T19:10:03.558Z,14.10
2022-10-05T19:14:45.365Z,16.55
2022-10-05T19:19:29.319Z,15.52
2022-10-05T19:23:49.180Z,13.85
2022-10-05T19:28:04.095Z,17.20
2022-10-05T19:32:18.486Z,14.32
2022-10-05T19:41:00.126Z,19.02
2022-10-05T19:45:22.633Z,15.50
2022-10-05T19:49:56.958Z,18.83
2022-10-05T19:54:12.535Z,18.60
2022-10-05T19:58:32.397Z,16.30
2022-10-05T20:02:37.522Z,17.25
2022-10-05T20:06:43.305Z,18.30
2022-10-05T20:11:03.008Z,16.73
2022-10-05T20:15:26.386Z,15.73
2022-10-05T20:19:49.555Z,17.98
2022-10-05T20:24:09.906Z,16.08
2022-10-05T20:28:11.714Z,23.65
2022-10-05T20:32:17.951Z,20.10
2022-10-05T20:36:19.883Z,23.38
2022-10-05T20:40:21.962Z,26.13
2022-10-05T20:44:23.772Z,21.38
2022-10-05T20:48:26.948Z,19.98
2022-10-05T20:52:29.389Z,20.77
2022-10-05T20:56:31.410Z,23.88
2022-10-05T21:00:53.076Z,22.15
2022-10-05T21:04:55.121Z,23.67
2022-10-05T21:08:56.803Z,21.77
2022-10-05T21:13:01.548Z,22.38
2022-10-05T21:17:05.014Z,19.20
2022-10-05T21:21:07.443Z,20.05
2022-10-05T21:25:09.314Z,19.42
2022-10-05T21:29:13.150Z,19.00
2022-10-05T21:33:14.821Z,23.60
2022-10-05T21:37:16.696Z,19.55
2022-10-05T21:41:19.136Z,21.52
2022-10-05T21:45:21.058Z,24.58
2022-10-05T21:49:23.265Z,19.20
2022-10-05T21:53:29.656Z,19.42
2022-10-05T21:57:31.975Z,19.60
2022-10-05T22:01:35.925Z,24.30
2022-10-05T22:05:37.978Z,24.17
2022-10-05T22:09:39.884Z,18.92
2022-10-05T22:14:06.171Z,22.55
2022-10-05T22:18:15.494Z,25.25
2022-10-05T22:22:17.464Z,20.58
2022-10-05T22:26:22.424Z,21.70
2022-10-05T22:30:24.142Z,18.85
2022-10-05T22:34:26.211Z,22.33
2022-10-05T22:38:30.320Z,34.17
2022-10-05T22:42:32.710Z,20.17
2022-10-05T22:46:35.283Z,27.40
2022-10-05T22:50:37.111Z,25.30
2022-10-05T22:54:38.758Z,28.88
2022-10-05T22:58:41.576Z,32.85
2022-10-05T23:02:43.877Z,26.95
2022-10-05T23:06:45.808Z,23.60
2022-10-05T23:10:47.466Z,29.65
2022-10-05T23:14:49.348Z,26.50
2022-10-05T23:18:52.740Z,26.40
2022-10-05T23:22:54.556Z,29.15
2022-10-05T23:26:56.207Z,28.48
2022-10-05T23:31:03.412Z,25.40
2022-10-05T23:35:06.286Z,27.30
2022-10-05T23:39:08.123Z,27.13
2022-10-05T23:43:09.883Z,20.45
2022-10-05T23:47:11.823Z,24.15
2022-10-05T23:51:14.409Z,23.70
2022-10-05T23:55:16.453Z,21.50
2022-10-05T23:59:18.115Z,26.42
